Time;durP1;ratioP1;P1;durP2;ratioP2;P2;SDS_P1;SDS_P2;PMS_P1;PMS_P2;Temp;Humidity;BMP_temperature;BMP_pressure;BME280_temperature;BME280_humidity;BME280_pressure;Samples;Min_cycle;Max_cycle;Signal;HPM_P1;HPM_P2
2023/09/22 00:01:29;;;;;;;9.90;6.28;;;;;;;15.31;100.00;99489.72;5157824;27;20141;-66
2023/09/22 00:03:56;;;;;;;7.85;6.13;;;;;;;15.39;100.00;99483.03;5158192;27;20061;-63
2023/09/22 00:06:22;;;;;;;8.65;6.50;;;;;;;15.36;100.00;99489.34;5158007;27;20050;-63
2023/09/22 00:08:48;;;;;;;12.38;6.97;;;;;;;15.48;100.00;99474.38;5157842;27;20055;-64
2023/09/22 00:11:14;;;;;;;7.30;5.68;;;;;;;15.44;100.00;99471.59;5157811;27;20520;-67
2023/09/22 00:13:41;;;;;;;9.25;6.15;;;;;;;15.45;100.00;99487.00;5157716;27;20212;-66
2023/09/22 00:16:07;;;;;;;12.45;6.20;;;;;;;15.23;100.00;99501.94;5157949;27;20066;-62
2023/09/22 00:18:33;;;;;;;13.30;7.20;;;;;;;15.35;100.00;99498.00;5157563;27;20091;-67
2023/09/22 00:20:59;;;;;;;8.82;6.65;;;;;;;15.26;100.00;99520.47;5157649;27;20137;-66
2023/09/22 00:23:25;;;;;;;10.73;5.70;;;;;;;15.05;100.00;99530.22;5157461;27;20054;-65
2023/09/22 00:25:50;;;;;;;11.95;6.40;;;;;;;15.09;100.00;99555.09;5157871;27;20914;-63
2023/09/22 00:28:16;;;;;;;8.85;6.47;;;;;;;14.95;100.00;99563.28;5157436;27;20336;-62
2023/09/22 00:30:44;;;;;;;15.27;5.85;;;;;;;15.05;100.00;99559.81;5157896;27;20423;-63
2023/09/22 00:33:10;;;;;;;9.25;6.30;;;;;;;15.36;100.00;99549.31;5157224;27;20055;-62
2023/09/22 00:35:36;;;;;;;9.65;6.38;;;;;;;15.29;100.00;99498.41;5157526;27;20050;-63
2023/09/22 00:38:02;;;;;;;8.35;5.93;;;;;;;15.38;100.00;99494.47;5157669;27;20134;-63
2023/09/22 00:40:28;;;;;;;8.80;5.82;;;;;;;15.27;100.00;99475.88;5157269;27;20129;-64
2023/09/22 00:43:09;;;;;;;8.25;5.50;;;;;;;15.15;100.00;99480.97;5159678;27;20114;-66
2023/09/22 00:45:40;;;;;;;8.60;5.95;;;;;;;15.20;100.00;99486.91;5161178;27;20078;-64
2023/09/22 00:48:08;;;;;;;8.60;6.13;;;;;;;15.18;100.00;99518.84;5161127;27;20130;-64
2023/09/22 00:50:34;;;;;;;16.27;7.00;;;;;;;15.22;100.00;99530.72;5160908;27;20103;-64
2023/09/22 00:53:00;;;;;;;12.95;5.85;;;;;;;15.27;100.00;99511.00;5161157;27;20047;-66
2023/09/22 00:55:27;;;;;;;7.20;5.60;;;;;;;15.28;100.00;99512.59;5160605;27;20066;-65
2023/09/22 00:57:53;;;;;;;10.27;6.22;;;;;;;15.27;100.00;99502.72;5161191;27;20051;-63
2023/09/22 01:00:19;;;;;;;8.23;5.78;;;;;;;15.29;100.00;99501.16;5160761;27;20053;-64
2023/09/22 01:02:45;;;;;;;9.93;6.35;;;;;;;15.20;100.00;99500.72;5160524;27;20336;-66
2023/09/22 01:05:12;;;;;;;6.45;5.85;;;;;;;15.18;100.00;99522.41;5160642;27;20137;-64
2023/09/22 01:07:39;;;;;;;8.27;6.22;;;;;;;15.34;100.00;99516.56;5160700;27;20046;-64
2023/09/22 01:10:09;;;;;;;10.90;6.80;;;;;;;14.97;100.00;99564.50;5160537;27;20057;-64
2023/09/22 01:12:35;;;;;;;11.35;6.55;;;;;;;15.09;100.00;99557.84;5160508;27;20050;-65
2023/09/22 01:15:01;;;;;;;7.35;6.10;;;;;;;15.05;100.00;99566.13;5160859;27;20193;-62
2023/09/22 01:17:26;;;;;;;8.18;6.25;;;;;;;15.22;100.00;99561.09;5160403;27;20095;-63
2023/09/22 01:19:52;;;;;;;13.57;6.50;;;;;;;15.08;100.00;99561.81;5160696;27;20058;-64
2023/09/22 01:22:20;;;;;;;7.30;6.50;;;;;;;15.03;100.00;99568.50;5160219;27;20065;-65
2023/09/22 01:25:24;;;;;;;12.18;7.20;;;;;;;15.08;100.00;99575.59;5160780;27;20050;-65
2023/09/22 01:27:50;;;;;;;10.10;6.72;;;;;;;14.89;100.00;99590.47;5160651;27;20043;-66
2023/09/22 01:30:16;;;;;;;8.70;6.68;;;;;;;15.17;100.00;99583.56;5160089;27;20058;-64
2023/09/22 01:32:42;;;;;;;8.35;6.80;;;;;;;15.06;100.00;99584.28;5160417;27;20078;-62
2023/09/22 01:35:08;;;;;;;16.98;6.97;;;;;;;14.98;100.00;99581.84;5160192;27;20079;-63
2023/09/22 01:37:39;;;;;;;14.93;6.75;;;;;;;15.06;100.00;99584.28;5160429;27;20141;-66
2023/09/22 01:40:08;;;;;;;7.78;6.03;;;;;;;15.01;100.00;99575.56;5160092;27;20134;-63
2023/09/22 01:42:34;;;;;;;8.43;6.55;;;;;;;15.05;100.00;99571.63;5160464;27;20084;-63
2023/09/22 01:45:00;;;;;;;10.52;6.55;;;;;;;14.96;100.00;99579.50;5159845;27;20046;-64
2023/09/22 01:47:26;;;;;;;12.18;6.72;;;;;;;15.04;100.00;99572.03;5160372;27;20062;-63
2023/09/22 01:49:52;;;;;;;8.10;5.72;;;;;;;14.88;100.00;99557.72;5159746;27;20133;-63
2023/09/22 01:52:18;;;;;;;10.90;6.82;;;;;;;14.95;100.00;99571.56;5159911;27;20042;-62
2023/09/22 01:54:45;;;;;;;12.10;7.07;;;;;;;14.86;100.00;99577.44;5159310;27;20065;-65
2023/09/22 01:57:11;;;;;;;11.13;7.88;;;;;;;14.96;100.00;99567.63;5159911;27;20047;-66
2023/09/22 01:59:36;;;;;;;8.05;6.50;;;;;;;14.94;100.00;99570.00;5159798;27;20328;-65
2023/09/22 02:02:02;;;;;;;8.35;6.55;;;;;;;14.94;100.00;99568.03;5159809;27;20066;-65
2023/09/22 02:04:30;;;;;;;15.18;6.50;;;;;;;14.81;100.00;99566.75;5159956;27;20360;-64
2023/09/22 02:06:56;;;;;;;11.45;6.57;;;;;;;14.87;100.00;99567.97;5159641;27;20400;-64
2023/09/22 02:09:22;;;;;;;8.63;6.97;;;;;;;14.56;100.00;99566.53;5159798;27;20078;-66
2023/09/22 02:11:49;;;;;;;10.95;7.38;;;;;;;14.73;100.00;99565.13;5159306;27;20050;-65
2023/09/22 02:14:15;;;;;;;10.45;6.13;;;;;;;14.82;100.00;99569.13;5159672;27;20042;-66
2023/09/22 02:16:41;;;;;;;10.93;7.45;;;;;;;14.64;100.00;99567.41;5159314;27;20051;-66
2023/09/22 02:19:06;;;;;;;10.38;7.15;;;;;;;14.55;100.00;99551.97;5159123;27;20511;-64
2023/09/22 02:21:32;;;;;;;11.13;7.40;;;;;;;14.48;100.00;99551.09;5159622;27;20133;-65
2023/09/22 02:23:58;;;;;;;16.40;7.72;;;;;;;14.61;100.00;99552.41;5159422;27;20085;-64
2023/09/22 02:26:25;;;;;;;10.38;8.05;;;;;;;14.73;100.00;99546.59;5159347;27;20356;-63
2023/09/22 02:28:53;;;;;;;12.75;7.82;;;;;;;14.54;100.00;99542.13;5159188;27;20065;-65
2023/09/22 02:31:20;;;;;;;14.45;8.45;;;;;;;14.62;100.00;99553.19;5159378;27;20053;-63
2023/09/22 02:33:48;;;;;;;12.35;7.90;;;;;;;14.63;100.00;99552.00;5159007;27;20084;-66
2023/09/22 02:36:16;;;;;;;13.38;7.85;;;;;;;14.44;100.00;99547.53;5159485;27;20050;-66
2023/09/22 02:38:42;;;;;;;15.20;7.82;;;;;;;14.44;100.00;99534.50;5159144;27;20043;-63
2023/09/22 02:41:09;;;;;;;16.75;8.40;;;;;;;14.62;100.00;99533.88;5159368;27;20365;-63
2023/09/22 02:43:35;;;;;;;12.00;8.02;;;;;;;14.57;100.00;99533.06;5158979;27;20055;-63
2023/09/22 02:46:03;;;;;;;20.20;8.63;;;;;;;14.56;100.00;99536.19;5159403;27;20069;-63
2023/09/22 02:48:29;;;;;;;15.27;8.98;;;;;;;14.44;100.00;99519.94;5159116;27;20050;-65
2023/09/22 02:50:55;;;;;;;11.57;8.43;;;;;;;14.33;100.00;99504.09;5158807;27;20050;-66
2023/09/22 02:53:21;;;;;;;16.15;8.15;;;;;;;14.58;100.00;99509.03;5158811;27;20056;-65
2023/09/22 02:55:47;;;;;;;11.85;8.35;;;;;;;14.38;100.00;99516.72;5158656;27;20081;-63
2023/09/22 02:58:14;;;;;;;14.50;8.40;;;;;;;14.50;100.00;99508.19;5159099;27;20086;-64
2023/09/22 03:00:43;;;;;;;14.23;8.73;;;;;;;14.14;100.00;99485.03;5158795;27;20137;-66
2023/09/22 03:03:10;;;;;;;15.18;8.68;;;;;;;14.33;100.00;99472.97;5159023;27;20079;-64
2023/09/22 03:05:37;;;;;;;16.05;9.45;;;;;;;14.22;100.00;99461.03;5157550;27;20426;-66
2023/09/22 03:08:04;;;;;;;17.33;8.70;;;;;;;14.30;100.00;99455.22;5159088;27;20050;-65
2023/09/22 03:10:30;;;;;;;13.80;8.95;;;;;;;14.28;100.00;99465.03;5158396;27;20046;-62
2023/09/22 03:12:56;;;;;;;15.82;8.88;;;;;;;14.30;100.00;99469.00;5158801;27;20082;-63
2023/09/22 03:15:22;;;;;;;14.05;8.63;;;;;;;14.24;100.00;99467.78;5158655;27;20046;-64
2023/09/22 03:17:48;;;;;;;18.30;9.52;;;;;;;14.25;100.00;99463.81;5158637;27;20355;-65
2023/09/22 03:20:17;;;;;;;18.10;9.88;;;;;;;14.03;100.00;99467.59;5158663;27;20122;-66
2023/09/22 03:22:43;;;;;;;19.70;9.23;;;;;;;14.22;100.00;99448.03;5158627;27;20054;-63
2023/09/22 03:25:10;;;;;;;12.77;8.63;;;;;;;14.31;100.00;99456.00;5158611;27;20092;-64
2023/09/22 03:27:36;;;;;;;16.90;9.35;;;;;;;14.17;100.00;99453.94;5158488;27;20129;-63
2023/09/22 03:30:02;;;;;;;13.13;9.32;;;;;;;14.12;100.00;99448.75;5158636;27;20052;-65
2023/09/22 03:32:29;;;;;;;14.23;8.77;;;;;;;14.08;100.00;99443.22;5158089;27;20100;-64
2023/09/22 03:34:57;;;;;;;18.60;9.35;;;;;;;14.07;100.00;99424.31;5158589;27;20058;-65
2023/09/22 03:37:27;;;;;;;22.70;9.90;;;;;;;14.06;100.00;99414.44;5158139;27;20046;-64
2023/09/22 03:39:53;;;;;;;19.35;9.23;;;;;;;14.25;100.00;99425.22;5158555;27;20419;-66
2023/09/22 03:42:19;;;;;;;17.90;9.70;;;;;;;14.15;100.00;99442.47;5157981;27;20046;-64
2023/09/22 03:44:45;;;;;;;15.50;8.73;;;;;;;13.83;100.00;99442.22;5158324;27;20057;-65
2023/09/22 03:47:10;;;;;;;17.52;9.40;;;;;;;14.15;100.00;99422.41;5158298;27;20050;-63
2023/09/22 03:49:36;;;;;;;17.10;9.18;;;;;;;14.20;100.00;99425.59;5158152;27;20370;-62
2023/09/22 03:52:04;;;;;;;15.38;9.35;;;;;;;14.21;100.00;99434.66;5158313;27;20057;-62
2023/09/22 03:54:30;;;;;;;13.98;8.80;;;;;;;14.23;100.00;99449.66;5158007;27;20050;-62
2023/09/22 03:56:56;;;;;;;14.77;8.73;;;;;;;14.24;100.00;99461.47;5158244;27;20057;-63
2023/09/22 03:59:22;;;;;;;13.20;8.57;;;;;;;14.04;100.00;99453.44;5157917;27;20328;-62
2023/09/22 04:01:48;;;;;;;14.88;9.02;;;;;;;14.42;100.00;99456.06;5158134;27;20404;-62
2023/09/22 04:04:14;;;;;;;13.80;8.38;;;;;;;13.98;100.00;99465.97;5157840;27;20046;-64
2023/09/22 04:06:40;;;;;;;18.77;10.45;;;;;;;14.20;100.00;99444.91;5158000;27;20487;-66
2023/09/22 04:09:07;;;;;;;16.70;8.98;;;;;;;14.13;100.00;99436.56;5157611;27;20046;-64
2023/09/22 04:11:34;;;;;;;14.05;8.63;;;;;;;14.38;100.00;99461.56;5158119;27;20157;-62
2023/09/22 04:14:00;;;;;;;17.38;9.20;;;;;;;14.23;100.00;99481.91;5157850;27;20046;-64
2023/09/22 04:16:26;;;;;;;15.75;8.77;;;;;;;14.37;100.00;99482.06;5157795;27;20065;-63
2023/09/22 04:18:54;;;;;;;13.18;7.90;;;;;;;14.40;100.00;99499.81;5161477;27;20147;-63
2023/09/22 04:21:21;;;;;;;12.88;8.52;;;;;;;14.37;100.00;99504.13;5161372;27;20050;-64
2023/09/22 04:23:51;;;;;;;12.18;7.50;;;;;;;14.31;100.00;99503.69;5161406;27;20351;-62
2023/09/22 04:26:17;;;;;;;11.50;8.63;;;;;;;14.31;100.00;99517.47;5161260;27;20422;-63
2023/09/22 04:28:46;;;;;;;17.45;8.50;;;;;;;14.47;100.00;99513.66;5161497;27;20137;-63
2023/09/22 04:31:13;;;;;;;15.35;8.20;;;;;;;14.52;100.00;99527.09;5161042;27;20424;-64
2023/09/22 04:33:38;;;;;;;12.73;8.57;;;;;;;14.51;100.00;99531.06;5161441;27;20050;-64
2023/09/22 04:36:05;;;;;;;10.60;7.72;;;;;;;14.85;100.00;99547.47;5160965;27;20443;-64
2023/09/22 04:38:31;;;;;;;12.00;6.93;;;;;;;14.85;100.00;99555.75;5161371;27;20205;-65
2023/09/22 04:40:58;;;;;;;9.68;7.43;;;;;;;15.37;100.00;99559.19;5160830;27;20059;-63
2023/09/22 04:43:24;;;;;;;13.23;7.47;;;;;;;15.97;100.00;99517.97;5160670;27;20099;-65
2023/09/22 04:45:50;;;;;;;11.85;10.60;;;;;;;15.92;100.00;99418.00;5161066;27;20055;-63
2023/09/22 04:48:17;;;;;;;13.23;9.93;;;;;;;16.02;100.00;99353.63;5160777;27;20142;-65
2023/09/22 04:50:43;;;;;;;16.13;7.13;;;;;;;16.84;100.00;99200.38;5161079;27;20078;-65
2023/09/22 04:53:09;;;;;;;14.10;6.88;;;;;;;16.86;100.00;99004.97;5160510;27;20406;-64
2023/09/22 04:55:35;;;;;;;13.75;10.43;;;;;;;17.13;100.00;98766.84;5160392;27;20051;-64
2023/09/22 04:58:02;;;;;;;13.70;10.27;;;;;;;17.10;100.00;98706.75;5160619;27;20086;-63
2023/09/22 05:00:28;;;;;;;9.52;6.95;;;;;;;17.17;100.00;98667.88;5161062;27;20046;-64
2023/09/22 05:02:55;;;;;;;16.58;9.73;;;;;;;17.42;100.00;98614.00;5160496;27;20061;-66
2023/09/22 05:05:22;;;;;;;10.98;7.20;;;;;;;17.34;100.00;98496.22;5160920;27;20054;-62
2023/09/22 05:07:48;;;;;;;11.68;6.93;;;;;;;18.33;100.00;98362.84;5159465;27;20043;-67
2023/09/22 05:10:14;;;;;;;14.07;6.38;;;;;;;18.02;100.00;98231.31;5159074;27;20050;-65
2023/09/22 05:12:40;;;;;;;9.90;7.15;;;;;;;18.52;100.00;98188.28;5159690;27;20043;-67
2023/09/22 05:15:08;;;;;;;11.23;9.35;;;;;;;18.28;100.00;98190.56;5159612;27;20077;-67
2023/09/22 05:17:34;;;;;;;11.65;6.20;;;;;;;19.00;100.00;98140.00;5160102;27;20051;-67
2023/09/22 05:20:04;;;;;;;9.80;6.72;;;;;;;19.24;100.00;98139.63;5160008;27;20042;-65
2023/09/22 05:22:30;;;;;;;11.23;7.05;;;;;;;19.13;100.00;98137.22;5159528;27;20107;-62
2023/09/22 05:24:56;;;;;;;14.88;6.70;;;;;;;19.54;100.00;98160.44;5160248;27;20128;-62
2023/09/22 05:27:24;;;;;;;16.30;7.53;;;;;;;20.12;100.00;98231.56;5160107;27;20387;-67
2023/09/22 05:29:52;;;;;;;14.05;6.72;;;;;;;20.11;100.00;98214.09;5154993;27;20420;-63
2023/09/22 05:32:18;;;;;;;15.88;6.05;;;;;;;20.19;100.00;98190.38;5150327;27;20046;-63
2023/09/22 05:34:44;;;;;;;9.45;6.68;;;;;;;19.68;100.00;98240.63;5159595;27;20054;-63
2023/09/22 05:37:11;;;;;;;15.27;6.68;;;;;;;20.72;100.00;98298.19;5159486;27;20478;-63
2023/09/22 05:39:38;;;;;;;8.35;6.43;;;;;;;20.48;100.00;98308.22;5159560;27;20069;-65
2023/09/22 05:42:04;;;;;;;14.75;6.85;;;;;;;20.42;100.00;98306.00;5159115;27;20072;-62
2023/09/22 05:44:30;;;;;;;13.02;7.78;;;;;;;20.57;100.00;98283.28;5142289;27;20146;-68
2023/09/22 05:46:56;;;;;;;9.48;6.60;;;;;;;21.15;100.00;98328.00;5158591;27;20099;-67
2023/09/22 05:49:22;;;;;;;13.40;6.68;;;;;;;21.44;100.00;98444.06;5159927;27;20138;-63
2023/09/22 05:51:48;;;;;;;13.75;6.80;;;;;;;22.35;100.00;98515.47;5158664;27;20106;-66
2023/09/22 05:54:15;;;;;;;9.30;6.57;;;;;;;21.53;100.00;98549.31;5159387;27;20054;-63
2023/09/22 05:56:41;;;;;;;10.68;6.10;;;;;;;22.00;100.00;98563.09;5159471;27;20536;-66
2023/09/22 05:59:07;;;;;;;12.05;8.70;;;;;;;21.51;100.00;98527.44;5159703;27;20059;-66
2023/09/22 06:01:36;;;;;;;8.25;6.00;;;;;;;21.77;100.00;98508.56;5159373;27;20111;-65
2023/09/22 06:04:04;;;;;;;7.38;6.00;;;;;;;21.46;100.00;98521.66;5155350;27;20051;-58
2023/09/22 06:06:31;;;;;;;13.25;6.47;;;;;;;22.00;100.00;98576.28;5141744;27;20058;-58
2023/09/22 06:08:57;;;;;;;15.63;8.48;;;;;;;21.59;100.00;98523.19;5152901;27;20137;-57
2023/09/22 06:11:24;;;;;;;17.48;6.95;;;;;;;22.30;100.00;98574.75;5159671;27;20195;-58
2023/09/22 06:13:50;;;;;;;9.50;6.47;;;;;;;21.49;100.00;98535.50;5151073;27;20145;-57
2023/09/22 06:16:16;;;;;;;16.42;8.50;;;;;;;21.75;100.00;98515.81;5159409;27;20142;-68
2023/09/22 06:18:42;;;;;;;17.13;6.00;;;;;;;22.08;100.00;98564.34;5159814;27;20099;-60
2023/09/22 06:21:10;;;;;;;9.75;5.30;;;;;;;21.61;100.00;98537.44;5159489;27;20046;-62
2023/09/22 06:23:36;;;;;;;11.85;6.20;;;;;;;23.40;100.00;98628.16;5159475;27;20062;-66
2023/09/22 06:26:04;;;;;;;14.20;8.10;;;;;;;23.28;100.00;98673.81;5159461;27;20315;-63
2023/09/22 06:28:32;;;;;;;8.50;5.50;;;;;;;24.08;100.00;98725.97;5158142;27;20149;-61
2023/09/22 06:30:59;;;;;;;13.25;8.40;;;;;;;22.90;100.00;98676.94;5159376;27;20111;-62
2023/09/22 06:33:25;;;;;;;7.68;5.88;;;;;;;24.30;100.00;98733.44;5159027;27;20365;-68
2023/09/22 06:35:56;;;;;;;11.45;7.93;;;;;;;23.61;100.00;98693.59;5158290;27;20093;-67
2023/09/22 06:38:22;;;;;;;12.43;7.60;;;;;;;23.18;100.00;98669.44;5154292;27;20046;-66
2023/09/22 06:40:50;;;;;;;11.15;8.30;;;;;;;23.37;100.00;98696.19;5158582;27;20088;-61
2023/09/22 06:43:16;;;;;;;9.43;7.40;;;;;;;22.76;100.00;98686.69;5158680;27;20344;-64
2023/09/22 06:45:43;;;;;;;12.15;8.60;;;;;;;23.73;100.00;98708.72;5158634;27;20093;-64
2023/09/22 06:48:09;;;;;;;11.55;7.95;;;;;;;23.45;100.00;98725.41;5158906;27;20125;-63
2023/09/22 06:50:35;;;;;;;10.65;5.38;;;;;;;23.90;100.00;98721.16;5158575;27;20404;-61
2023/09/22 06:53:01;;;;;;;8.80;5.45;;;;;;;23.84;100.00;98708.25;5158915;27;20075;-62
2023/09/22 06:55:27;;;;;;;10.13;6.57;;;;;;;24.24;100.00;98744.47;5158431;27;20103;-61
2023/09/22 06:57:53;;;;;;;13.25;7.28;;;;;;;24.79;100.00;98754.81;5158268;27;20054;-60
2023/09/22 07:00:22;;;;;;;11.70;6.43;;;;;;;24.31;100.00;98766.56;5157410;27;20072;-66
2023/09/22 07:02:49;;;;;;;15.45;7.00;;;;;;;23.86;100.00;98745.75;5157799;27;20090;-63
2023/09/22 07:05:15;;;;;;;11.93;7.75;;;;;;;24.58;100.00;98762.97;5158095;27;20442;-56
2023/09/22 07:07:41;;;;;;;8.75;5.80;;;;;;;24.67;100.00;98759.38;5158395;27;20081;-56
2023/09/22 07:10:09;;;;;;;9.82;5.50;;;;;;;25.49;100.00;98769.53;5158630;27;20293;-58
2023/09/22 07:12:36;;;;;;;11.52;6.10;;;;;;;24.35;100.00;98766.41;5158181;27;20042;-59
2023/09/22 07:15:03;;;;;;;14.88;6.88;;;;;;;24.78;100.00;98773.66;5158536;27;20046;-54
2023/09/22 07:17:29;;;;;;;10.75;6.78;;;;;;;24.51;100.00;98754.91;5158125;27;20085;-54
2023/09/22 07:19:56;;;;;;;11.18;7.05;;;;;;;26.43;100.00;98802.91;5158697;27;20052;-54
2023/09/22 07:22:22;;;;;;;12.13;6.43;;;;;;;25.44;100.00;98786.25;5158234;27;20146;-53
2023/09/22 07:24:51;;;;;;;11.55;6.68;;;;;;;25.43;100.00;98793.13;5158636;27;20046;-57
2023/09/22 07:27:17;;;;;;;10.35;6.95;;;;;;;25.15;100.00;98793.22;5158247;27;20065;-59
2023/09/22 07:29:43;;;;;;;12.40;6.18;;;;;;;25.74;100.00;98798.38;5157781;27;20047;-59
2023/09/22 07:32:09;;;;;;;10.30;5.95;;;;;;;25.02;100.00;98790.56;5158194;27;20289;-55
2023/09/22 07:34:35;;;;;;;9.85;6.28;;;;;;;25.27;100.00;98797.06;5157907;27;20061;-55
2023/09/22 07:37:01;;;;;;;12.57;6.93;;;;;;;25.31;100.00;98806.09;5158218;27;20389;-54
2023/09/22 07:39:27;;;;;;;12.20;5.88;;;;;;;25.90;100.00;98806.44;5157909;27;20078;-55
2023/09/22 07:41:53;;;;;;;11.13;6.22;;;;;;;25.22;100.00;98808.94;5158038;27;20435;-58
2023/09/22 07:44:21;;;;;;;11.25;5.80;;;;;;;26.52;100.00;98818.91;5157924;27;20054;-59
2023/09/22 07:46:48;;;;;;;10.57;6.57;;;;;;;26.03;100.00;98823.81;5158237;27;20107;-60
2023/09/22 07:49:14;;;;;;;10.32;6.13;;;;;;;25.93;100.00;98807.50;5157488;27;20145;-61
2023/09/22 07:51:40;;;;;;;10.48;6.03;;;;;;;25.61;100.00;98817.50;5157465;27;20046;-58
2023/09/22 07:54:07;;;;;;;12.90;6.50;;;;;;;25.90;100.00;98800.81;5157401;27;20054;-59
2023/09/22 07:56:33;;;;;;;8.80;6.15;;;;;;;26.62;100.00;98816.78;5157983;27;20053;-57
2023/09/22 07:58:59;;;;;;;13.23;6.38;;;;;;;25.09;100.00;98798.69;5157634;27;20046;-58
2023/09/22 08:01:26;;;;;;;9.23;5.80;;;;;;;25.65;100.00;98804.81;5157865;27;20050;-60
2023/09/22 08:03:52;;;;;;;8.30;6.35;;;;;;;25.70;100.00;98807.00;5157740;27;20062;-56
2023/09/22 08:06:18;;;;;;;10.15;5.38;;;;;;;25.34;100.00;98799.53;5157626;27;20050;-57
2023/09/22 08:08:49;;;;;;;8.50;5.45;;;;;;;25.42;100.00;98802.75;5157857;27;20047;-55
2023/09/22 08:11:17;;;;;;;11.07;5.28;;;;;;;26.43;100.00;98808.50;5157614;27;20077;-62
2023/09/22 08:13:43;;;;;;;12.93;5.97;;;;;;;26.35;100.00;98809.34;5157607;27;20077;-56
2023/09/22 08:16:10;;;;;;;12.23;6.43;;;;;;;26.58;100.00;98817.00;5157160;27;20089;-57
2023/09/22 08:18:40;;;;;;;11.60;5.78;;;;;;;26.36;100.00;98805.28;5157789;27;20093;-60
2023/09/22 08:21:06;;;;;;;11.73;6.30;;;;;;;27.19;100.00;98811.69;5157360;27;20126;-62
2023/09/22 08:23:32;;;;;;;8.73;6.00;;;;;;;26.25;100.00;98819.91;5157732;27;20324;-61
2023/09/22 08:25:58;;;;;;;8.13;5.68;;;;;;;25.82;100.00;98810.84;5156998;27;20047;-61
2023/09/22 08:28:26;;;;;;;17.30;5.97;;;;;;;26.13;100.00;98816.09;5157175;27;20392;-62
2023/09/22 08:30:55;;;;;;;8.88;5.80;;;;;;;26.63;100.00;98827.56;5157126;27;20317;-56
2023/09/22 08:33:21;;;;;;;12.60;5.45;;;;;;;26.12;100.00;98808.13;5157036;27;20061;-63
2023/09/22 08:35:48;;;;;;;6.97;5.65;;;;;;;26.01;100.00;98808.69;5157297;27;20393;-61
2023/09/22 08:38:14;;;;;;;10.68;5.80;;;;;;;26.57;100.00;98812.63;5156887;27;20077;-59
2023/09/22 08:40:40;;;;;;;12.40;5.13;;;;;;;26.68;100.00;98824.06;5157110;27;20392;-61
2023/09/22 08:43:08;;;;;;;12.27;5.30;;;;;;;25.53;100.00;98820.66;5156939;27;20087;-61
2023/09/22 08:45:36;;;;;;;18.00;6.20;;;;;;;25.78;100.00;98825.03;5157259;27;20051;-64
2023/09/22 08:48:02;;;;;;;8.02;5.35;;;;;;;25.98;100.00;98816.03;5156904;27;20070;-64
2023/09/22 08:50:28;;;;;;;10.77;5.55;;;;;;;26.18;100.00;98823.84;5157326;27;20145;-65
2023/09/22 08:52:54;;;;;;;13.68;5.30;;;;;;;25.53;100.00;98836.72;5156729;27;20054;-61
2023/09/22 08:55:22;;;;;;;11.75;5.40;;;;;;;25.73;100.00;98825.69;5156875;27;20051;-62
2023/09/22 08:57:49;;;;;;;9.05;4.80;;;;;;;26.13;100.00;98824.53;5156780;27;20400;-62
2023/09/22 09:00:19;;;;;;;8.77;5.18;;;;;;;25.81;100.00;98821.28;5156672;27;20137;-61
2023/09/22 09:02:45;;;;;;;18.63;5.88;;;;;;;26.79;96.87;98825.53;5156969;27;20051;-63
2023/09/22 09:05:19;;;;;;;8.48;4.93;;;;;;;26.60;93.54;98825.72;5159487;27;20066;-56
2023/09/22 09:07:45;;;;;;;10.80;5.13;;;;;;;26.14;96.05;98823.25;5160723;27;20103;-65
2023/09/22 09:10:29;;;;;;;11.02;5.47;;;;;;;25.59;100.00;98820.75;5160060;27;20066;-66
2023/09/22 09:12:55;;;;;;;13.60;4.88;;;;;;;26.23;100.00;98825.22;5160478;27;20050;-66
2023/09/22 09:15:25;;;;;;;10.50;5.28;;;;;;;26.78;98.89;98830.38;5160132;27;20163;-66
2023/09/22 09:18:08;;;;;;;13.98;5.10;;;;;;;26.40;98.83;98820.72;5160412;27;20054;-60
2023/09/22 09:20:36;;;;;;;11.43;5.13;;;;;;;26.01;100.00;98797.44;5158165;27;20133;-59
2023/09/22 09:23:13;;;;;;;7.05;4.93;;;;;;;25.84;100.00;98801.94;5159924;27;20061;-65
2023/09/22 09:25:43;;;;;;;13.10;4.68;;;;;;;26.16;100.00;98809.53;5160031;27;20072;-58
2023/09/22 09:28:11;;;;;;;17.45;5.53;;;;;;;26.21;100.00;98794.78;5159968;27;20099;-56
2023/09/22 09:30:37;;;;;;;9.38;5.18;;;;;;;26.54;98.22;98816.41;5160054;27;20058;-65
2023/09/22 09:33:10;;;;;;;9.63;5.13;;;;;;;26.95;99.58;98805.38;5159691;27;20428;-60
2023/09/22 09:35:39;;;;;;;9.45;5.05;;;;;;;27.02;95.88;98802.16;5160170;27;20111;-60
2023/09/22 09:38:06;;;;;;;7.72;4.88;;;;;;;26.63;96.04;98815.56;5159737;27;20061;-62
2023/09/22 09:40:36;;;;;;;12.05;4.63;;;;;;;26.04;97.60;98808.50;5159713;27;20050;-60
2023/09/22 09:43:06;;;;;;;8.32;5.05;;;;;;;25.93;96.94;98813.13;5159672;27;20050;-63
2023/09/22 09:45:33;;;;;;;11.05;4.72;;;;;;;26.35;95.83;98804.50;5159628;27;20047;-59
2023/09/22 09:48:03;;;;;;;9.55;4.72;;;;;;;26.28;95.96;98805.66;5159847;27;20350;-58
2023/09/22 09:50:34;;;;;;;8.85;4.95;;;;;;;26.97;94.64;98808.47;5159523;27;20055;-63
2023/09/22 09:53:13;;;;;;;10.27;4.93;;;;;;;25.78;96.52;98815.81;5159900;27;20252;-56
2023/09/22 09:55:42;;;;;;;10.00;4.80;;;;;;;25.91;95.16;98810.00;5159428;27;20367;-61
2023/09/22 09:58:11;;;;;;;10.68;4.57;;;;;;;26.09;94.52;98809.09;5159978;27;20050;-58
2023/09/22 10:00:39;;;;;;;9.27;4.90;;;;;;;26.55;93.73;98808.75;5159565;27;20051;-59
2023/09/22 10:03:07;;;;;;;8.70;4.47;;;;;;;27.32;86.84;98804.97;5159418;27;20050;-57
2023/09/22 10:05:34;;;;;;;9.90;4.63;;;;;;;26.99;84.96;98801.13;5159371;27;20404;-58
2023/09/22 10:08:00;;;;;;;11.32;4.70;;;;;;;27.26;81.88;98806.91;5159208;27;20420;-63
2023/09/22 10:10:28;;;;;;;10.35;4.50;;;;;;;26.47;86.65;98799.91;5159060;27;20430;-60
2023/09/22 10:12:54;;;;;;;14.07;4.30;;;;;;;26.07;91.53;98794.78;5158980;27;20068;-57
2023/09/22 10:15:50;;;;;;;21.75;4.93;;;;;;;25.85;92.54;98803.50;5158619;27;20104;-57
2023/09/22 10:18:17;;;;;;;7.97;4.68;;;;;;;26.29;90.71;98786.75;5158973;27;20553;-57
2023/09/22 10:20:45;;;;;;;12.02;4.80;;;;;;;25.97;93.14;98780.78;5158926;27;20141;-68
2023/09/22 10:23:19;;;;;;;13.02;4.97;;;;;;;26.41;91.82;98784.97;5159287;27;20199;-63
2023/09/22 10:26:16;;;;;;;12.10;5.07;;;;;;;27.14;85.76;98787.03;5159167;27;20155;-62
2023/09/22 10:28:43;;;;;;;12.77;4.38;;;;;;;27.32;82.39;98777.59;5159276;27;20050;-55
2023/09/22 10:31:09;;;;;;;10.13;5.25;;;;;;;26.71;84.75;98789.38;5158797;27;20138;-64
2023/09/22 10:33:35;;;;;;;13.13;4.20;;;;;;;26.56;83.88;98782.97;5159161;27;20057;-66
2023/09/22 10:36:04;;;;;;;13.43;4.28;;;;;;;26.33;86.80;98783.78;5158757;27;20160;-59
2023/09/22 10:38:30;;;;;;;9.63;5.18;;;;;;;26.46;85.99;98782.25;5159205;27;20134;-62
2023/09/22 10:41:05;;;;;;;11.00;4.38;;;;;;;27.14;79.43;98784.22;5158616;27;20435;-60
2023/09/22 10:43:32;;;;;;;10.07;4.32;;;;;;;27.65;80.67;98771.66;5159034;27;20043;-65
2023/09/22 10:45:59;;;;;;;11.25;4.47;;;;;;;27.60;78.08;98775.19;5158784;27;20058;-63
2023/09/22 10:48:31;;;;;;;8.10;3.83;;;;;;;27.01;79.63;98791.41;5159041;27;20061;-61
2023/09/22 10:50:56;;;;;;;9.60;4.22;;;;;;;26.99;79.06;98777.81;5158860;27;20265;-63
2023/09/22 10:53:23;;;;;;;10.20;4.13;;;;;;;26.18;82.49;98778.13;5158552;27;20053;-59
2023/09/22 10:55:49;;;;;;;8.98;4.38;;;;;;;26.13;83.87;98776.00;5158729;27;20060;-62
2023/09/22 10:58:18;;;;;;;14.38;4.20;;;;;;;26.31;88.18;98780.69;5158517;27;20133;-57
2023/09/22 11:00:55;;;;;;;12.25;5.40;;;;;;;26.77;85.57;98777.47;5159105;27;20054;-56
2023/09/22 11:03:21;;;;;;;10.68;3.95;;;;;;;26.64;79.79;98794.59;5158438;27;20061;-60
2023/09/22 11:05:57;;;;;;;10.07;4.65;;;;;;;26.31;85.91;98783.47;5158591;27;20055;-59
2023/09/22 11:08:24;;;;;;;8.63;4.05;;;;;;;26.18;84.60;98770.47;5158594;27;20051;-62
2023/09/22 11:10:50;;;;;;;8.27;3.90;;;;;;;25.98;84.36;98770.31;5158419;27;20081;-62
2023/09/22 11:13:18;;;;;;;11.35;3.33;;;;;;;25.53;85.87;98775.75;5158656;27;20096;-63
2023/09/22 11:15:49;;;;;;;12.77;4.97;;;;;;;25.50;87.28;98778.72;5158711;27;20046;-62
2023/09/22 11:18:22;;;;;;;11.38;4.35;;;;;;;24.82;89.73;98774.28;5158571;27;20050;-62
2023/09/22 11:20:48;;;;;;;12.43;2.70;;;;;;;24.69;91.93;98765.28;5158265;27;20078;-67
2023/09/22 11:23:15;;;;;;;22.30;3.28;;;;;;;24.65;90.64;98767.47;5158434;27;20065;-62